createdAt,value
2019-01-31T00:01:05.819Z,-3.95
2019-01-31T00:04:07.003Z,-3.95
2019-01-31T00:07:08.827Z,-3.97
2019-01-31T00:10:29.957Z,-3.98
2019-01-31T00:13:21.341Z,-4.00
2019-01-31T00:15:58.757Z,-4.07
2019-01-31T00:18:55.269Z,-4.12
2019-01-31T00:22:05.244Z,-4.15
2019-01-31T00:25:01.773Z,-4.17
2019-01-31T00:28:10.736Z,-4.16
2019-01-31T00:31:35.673Z,-4.14
2019-01-31T00:34:56.652Z,-4.14
2019-01-31T00:37:51.648Z,-4.17
2019-01-31T00:40:36.223Z,-4.23
2019-01-31T00:44:12.597Z,-4.25
2019-01-31T00:46:46.412Z,-4.24
2019-01-31T00:49:37.173Z,-4.22
2019-01-31T00:53:00.362Z,-4.25
2019-01-31T00:55:53.906Z,-4.29
2019-01-31T00:59:09.199Z,-4.36
2019-01-31T01:02:19.976Z,-4.41
2019-01-31T01:05:10.168Z,-4.49
2019-01-31T01:07:59.601Z,-4.50
2019-01-31T01:11:12.948Z,-4.47
2019-01-31T01:14:15.059Z,-4.43
2019-01-31T01:17:08.030Z,-4.47
2019-01-31T01:20:10.884Z,-4.47
2019-01-31T01:22:51.970Z,-4.49
2019-01-31T01:26:09.903Z,-4.50
2019-01-31T01:28:56.107Z,-4.50
2019-01-31T01:31:53.581Z,-4.52
2019-01-31T01:35:23.668Z,-4.54
2019-01-31T01:38:19.601Z,-4.57
2019-01-31T01:40:56.207Z,-4.63
2019-01-31T01:43:57.884Z,-4.69
2019-01-31T01:47:09.404Z,-4.73
2019-01-31T01:49:59.102Z,-4.72
2019-01-31T01:52:45.824Z,-4.71
2019-01-31T01:55:38.560Z,-4.70
2019-01-31T01:58:58.680Z,-4.70
2019-01-31T02:01:58.345Z,-4.68
2019-01-31T02:05:05.496Z,-4.66
2019-01-31T02:08:03.964Z,-4.67
2019-01-31T02:11:10.040Z,-4.66
2019-01-31T02:14:15.113Z,-4.65
2019-01-31T02:17:39.220Z,-4.64
2019-01-31T02:21:09.427Z,-4.65
2019-01-31T02:24:02.256Z,-4.67
2019-01-31T02:27:14.101Z,-4.63
2019-01-31T02:30:06.897Z,-4.63
2019-01-31T02:33:15.844Z,-4.68
2019-01-31T02:36:10.013Z,-4.70
2019-01-31T02:39:23.981Z,-4.72
2019-01-31T02:42:41.862Z,-4.76
2019-01-31T02:46:02.766Z,-4.77
2019-01-31T02:48:58.480Z,-4.71
2019-01-31T02:52:14.893Z,-4.71
2019-01-31T02:55:20.152Z,-4.75
2019-01-31T02:58:38.438Z,-4.70
2019-01-31T03:02:05.909Z,-4.63
2019-01-31T03:05:16.225Z,-4.55
2019-01-31T03:08:17.128Z,-4.47
2019-01-31T03:11:19.076Z,-4.41
2019-01-31T03:14:21.796Z,-4.35
2019-01-31T03:17:24.951Z,-4.33
2019-01-31T03:20:17.086Z,-4.30
2019-01-31T03:23:11.756Z,-4.29
2019-01-31T03:26:29.626Z,-4.25
2019-01-31T03:29:47.416Z,-4.24
2019-01-31T03:32:27.134Z,-4.24
2019-01-31T03:35:18.727Z,-4.21
2019-01-31T03:38:39.784Z,-4.20
2019-01-31T03:41:44.863Z,-4.16
2019-01-31T03:45:06.156Z,-4.14
2019-01-31T03:48:19.023Z,-4.16
2019-01-31T03:51:32.690Z,-4.17
2019-01-31T03:54:41.641Z,-4.17
2019-01-31T03:57:46.847Z,-4.17
2019-01-31T04:00:47.267Z,-4.17
2019-01-31T04:03:38.487Z,-4.17
2019-01-31T04:06:29.805Z,-4.16
2019-01-31T04:08:56.900Z,-4.12
2019-01-31T04:11:23.990Z,-4.11
2019-01-31T04:13:51.098Z,-4.11
2019-01-31T04:16:18.173Z,-4.11
2019-01-31T04:18:45.288Z,-4.08
2019-01-31T04:21:12.410Z,-4.11
2019-01-31T04:23:39.669Z,-4.12
2019-01-31T04:26:08.685Z,-4.16
2019-01-31T04:28:37.192Z,-4.15
2019-01-31T04:31:04.601Z,-4.14
2019-01-31T04:33:31.929Z,-4.13
2019-01-31T04:35:59.103Z,-4.09
2019-01-31T04:38:27.244Z,-4.07
2019-01-31T04:40:55.421Z,-4.06
2019-01-31T04:43:22.508Z,-4.05
2019-01-31T04:45:49.600Z,-4.05
2019-01-31T04:48:16.906Z,-4.05
2019-01-31T04:50:44.156Z,-4.05
2019-01-31T04:53:11.449Z,-4.07
2019-01-31T04:55:38.647Z,-4.06
2019-01-31T04:58:05.814Z,-4.05
2019-01-31T05:00:33.137Z,-4.04
2019-01-31T05:03:00.456Z,-4.03
2019-01-31T05:05:27.682Z,-4.05
2019-01-31T05:07:55.070Z,-4.06
2019-01-31T05:10:22.383Z,-4.07
2019-01-31T05:12:49.554Z,-4.05
2019-01-31T05:15:16.647Z,-4.01
2019-01-31T05:17:45.612Z,-3.99
2019-01-31T05:20:17.316Z,-3.99
2019-01-31T05:22:44.612Z,-4.02
2019-01-31T05:25:13.526Z,-4.11
2019-01-31T05:27:40.650Z,-4.16
2019-01-31T05:30:10.364Z,-4.24
2019-01-31T05:32:37.540Z,-4.29
2019-01-31T05:35:05.161Z,-4.36
2019-01-31T05:37:32.259Z,-4.38
2019-01-31T05:39:59.382Z,-4.35
2019-01-31T05:42:26.486Z,-4.27
2019-01-31T05:44:53.774Z,-4.23
2019-01-31T05:47:20.896Z,-4.20
2019-01-31T05:49:47.997Z,-4.23
2019-01-31T05:52:15.111Z,-4.29
2019-01-31T05:54:42.208Z,-4.33
2019-01-31T05:57:09.414Z,-4.34
2019-01-31T05:59:36.525Z,-4.31
2019-01-31T06:02:03.938Z,-4.24
2019-01-31T06:04:31.104Z,-4.21
2019-01-31T06:06:58.434Z,-4.17
2019-01-31T06:09:25.793Z,-4.15
2019-01-31T06:11:53.028Z,-4.12
2019-01-31T06:14:21.881Z,-4.10
2019-01-31T06:16:49.765Z,-4.08
2019-01-31T06:19:17.078Z,-4.05
2019-01-31T06:21:45.474Z,-4.03
2019-01-31T06:24:12.573Z,-3.99
2019-01-31T06:26:39.843Z,-3.96
2019-01-31T06:29:08.853Z,-3.94
2019-01-31T06:31:36.117Z,-3.91
2019-01-31T06:34:04.469Z,-3.87
2019-01-31T06:36:31.715Z,-3.84
2019-01-31T06:38:58.837Z,-3.89
2019-01-31T06:41:27.055Z,-3.94
2019-01-31T06:43:54.292Z,-3.94
2019-01-31T06:46:21.412Z,-3.93
2019-01-31T06:48:49.918Z,-3.90
2019-01-31T06:51:17.112Z,-3.88
2019-01-31T06:53:44.231Z,-3.89
2019-01-31T06:56:11.462Z,-3.86
2019-01-31T06:58:42.660Z,-3.86
2019-01-31T07:01:13.155Z,-3.85
2019-01-31T07:03:42.211Z,-3.85
2019-01-31T07:06:09.668Z,-3.86
2019-01-31T07:08:44.592Z,-3.86
2019-01-31T07:11:11.863Z,-3.89
2019-01-31T07:13:40.260Z,-3.89
2019-01-31T07:16:07.537Z,-3.89
2019-01-31T07:18:34.649Z,-3.88
2019-01-31T07:21:03.710Z,-3.89
2019-01-31T07:23:32.320Z,-3.88
2019-01-31T07:26:01.254Z,-3.86
2019-01-31T07:28:29.744Z,-3.84
2019-01-31T07:30:56.871Z,-3.84
2019-01-31T07:33:25.328Z,-3.83
2019-01-31T07:35:53.517Z,-3.83
2019-01-31T07:38:20.721Z,-3.84
2019-01-31T07:40:47.929Z,-3.83
2019-01-31T07:43:15.165Z,-3.85
2019-01-31T07:45:42.562Z,-3.88
2019-01-31T07:48:09.671Z,-3.87
2019-01-31T07:50:36.825Z,-3.83
2019-01-31T07:53:04.162Z,-3.82
2019-01-31T07:55:31.561Z,-3.81
2019-01-31T07:57:58.868Z,-3.78
2019-01-31T08:00:25.980Z,-3.78
2019-01-31T08:02:53.540Z,-3.81
2019-01-31T08:05:22.083Z,-3.81
2019-01-31T08:07:50.503Z,-3.83
2019-01-31T08:10:23.356Z,-3.81
2019-01-31T08:12:52.428Z,-3.75
2019-01-31T08:15:19.733Z,-3.73
2019-01-31T08:17:47.043Z,-3.72
2019-01-31T08:20:16.866Z,-3.73
2019-01-31T08:22:45.377Z,-3.73
2019-01-31T08:25:16.209Z,-3.71
2019-01-31T08:27:45.304Z,-3.71
2019-01-31T08:30:15.288Z,-3.68
2019-01-31T08:32:43.682Z,-3.66
2019-01-31T08:35:11.881Z,-3.63
2019-01-31T08:37:39.280Z,-3.60
2019-01-31T08:40:09.843Z,-3.58
2019-01-31T08:42:38.726Z,-3.55
2019-01-31T08:45:08.273Z,-3.51
2019-01-31T08:47:37.205Z,-3.49
2019-01-31T08:50:07.686Z,-3.46
2019-01-31T08:52:36.632Z,-3.44
2019-01-31T08:55:04.512Z,-3.45
2019-01-31T08:57:31.924Z,-3.43
2019-01-31T08:59:59.191Z,-3.41
2019-01-31T09:02:26.747Z,-3.43
2019-01-31T09:04:54.121Z,-3.41
2019-01-31T09:07:21.472Z,-3.41
2019-01-31T09:09:48.863Z,-3.39
2019-01-31T09:12:17.928Z,-3.37
2019-01-31T09:14:45.154Z,-3.32
2019-01-31T09:17:14.163Z,-3.29
2019-01-31T09:19:41.632Z,-3.27
2019-01-31T09:22:44.300Z,-3.24
2019-01-31T09:25:55.295Z,-3.22
2019-01-31T09:28:52.369Z,-3.20
2019-01-31T09:32:03.631Z,-3.16
2019-01-31T09:35:21.177Z,-3.04
2019-01-31T09:38:45.454Z,-2.87
2019-01-31T09:41:58.591Z,-2.65
2019-01-31T09:45:12.432Z,-2.55
2019-01-31T09:48:20.027Z,-2.45
2019-01-31T09:51:38.177Z,-2.33
2019-01-31T09:54:50.019Z,-2.26
2019-01-31T09:58:01.199Z,-2.17
2019-01-31T10:01:28.377Z,-2.01
2019-01-31T10:04:30.184Z,-1.88
2019-01-31T10:07:33.335Z,-1.72
2019-01-31T10:10:23.104Z,-1.63
2019-01-31T10:13:34.797Z,-1.62
2019-01-31T10:16:18.855Z,-1.62
2019-01-31T10:19:23.309Z,-1.63
2019-01-31T10:22:39.520Z,-1.68
2019-01-31T10:26:11.628Z,-1.70
2019-01-31T10:29:44.742Z,-1.72
2019-01-31T10:32:39.540Z,-1.75
2019-01-31T10:35:34.702Z,-1.80
2019-01-31T10:38:55.744Z,-1.87
2019-01-31T10:42:03.777Z,-1.86
2019-01-31T10:45:21.728Z,-1.83
2019-01-31T10:48:31.842Z,-1.79
2019-01-31T10:51:42.975Z,-1.78
2019-01-31T10:54:41.689Z,-1.76
2019-01-31T10:57:44.297Z,-1.75
2019-01-31T11:00:44.930Z,-1.71
2019-01-31T11:03:47.812Z,-1.70
2019-01-31T11:06:54.845Z,-1.70
2019-01-31T11:09:57.448Z,-1.66
2019-01-31T11:12:37.238Z,-1.63
2019-01-31T11:15:27.701Z,-1.61
2019-01-31T11:18:15.982Z,-1.60
2019-01-31T11:21:22.195Z,-1.61
2019-01-31T11:24:24.591Z,-1.59
2019-01-31T11:27:51.588Z,-1.57
2019-01-31T11:30:43.199Z,-1.56
2019-01-31T11:33:38.841Z,-1.51
2019-01-31T11:36:42.006Z,-1.48
2019-01-31T11:39:37.630Z,-1.39
2019-01-31T11:42:38.174Z,-1.37
2019-01-31T11:45:42.575Z,-1.34
2019-01-31T11:48:40.295Z,-1.29
2019-01-31T11:51:40.132Z,-1.25
2019-01-31T11:54:36.578Z,-1.18
2019-01-31T11:57:36.599Z,-1.17
2019-01-31T12:00:04.999Z,-1.22
2019-01-31T12:02:32.150Z,-1.21
2019-01-31T12:04:59.243Z,-1.18
2019-01-31T12:07:26.383Z,-1.15
2019-01-31T12:09:53.510Z,-1.14
2019-01-31T12:12:20.607Z,-1.12
2019-01-31T12:14:47.712Z,-1.10
2019-01-31T12:17:14.813Z,-1.05
2019-01-31T12:19:42.116Z,-1.04
2019-01-31T12:22:09.457Z,-1.03
2019-01-31T12:24:36.573Z,-1.03
2019-01-31T12:27:03.782Z,-1.03
2019-01-31T12:29:30.933Z,-1.01
2019-01-31T12:31:58.067Z,-1.02
2019-01-31T12:34:25.183Z,-1.00
2019-01-31T12:36:54.324Z,-0.97
2019-01-31T12:39:21.752Z,-0.94
2019-01-31T12:41:49.144Z,-0.94
2019-01-31T12:44:18.275Z,-0.91
2019-01-31T12:46:45.689Z,-0.90
2019-01-31T12:49:12.945Z,-0.92
2019-01-31T12:51:41.296Z,-0.92
2019-01-31T12:54:08.697Z,-0.89
2019-01-31T12:56:36.137Z,-0.88
2019-01-31T12:59:03.568Z,-0.87
2019-01-31T13:01:32.632Z,-0.87
2019-01-31T13:04:00.004Z,-0.89
2019-01-31T13:06:27.399Z,-0.89
2019-01-31T13:08:54.976Z,-0.89
2019-01-31T13:11:22.377Z,-0.88
2019-01-31T13:13:49.811Z,-0.91
2019-01-31T13:16:29.638Z,-0.92
2019-01-31T13:18:56.970Z,-0.93
2019-01-31T13:21:25.525Z,-0.90
2019-01-31T13:23:52.929Z,-0.89
2019-01-31T13:26:21.921Z,-0.89
2019-01-31T13:28:49.196Z,-0.88
2019-01-31T13:31:16.508Z,-0.87
2019-01-31T13:33:46.627Z,-0.89
2019-01-31T13:36:14.067Z,-0.89
2019-01-31T13:38:41.537Z,-0.89
2019-01-31T13:41:10.051Z,-0.87
2019-01-31T13:43:37.507Z,-0.88
2019-01-31T13:46:05.260Z,-0.89
2019-01-31T13:48:32.548Z,-0.89
2019-01-31T13:50:59.981Z,-0.89
2019-01-31T13:53:27.335Z,-0.89
2019-01-31T13:55:54.899Z,-0.89
2019-01-31T13:58:22.354Z,-0.89
2019-01-31T14:00:49.696Z,-0.90
2019-01-31T14:03:18.280Z,-0.90
2019-01-31T14:05:45.752Z,-0.93
2019-01-31T14:08:13.108Z,-0.95
2019-01-31T14:10:40.267Z,-0.95
2019-01-31T14:13:07.545Z,-0.94
2019-01-31T14:15:36.483Z,-0.94
2019-01-31T14:18:05.191Z,-0.92
2019-01-31T14:20:32.958Z,-0.92
2019-01-31T14:23:00.320Z,-0.92
2019-01-31T14:25:27.883Z,-0.96
2019-01-31T14:27:55.443Z,-0.97
2019-01-31T14:30:31.725Z,-0.99
2019-01-31T14:32:59.056Z,-1.00
2019-01-31T14:35:26.211Z,-0.99
2019-01-31T14:37:54.737Z,-0.97
2019-01-31T14:40:22.467Z,-0.97
2019-01-31T14:42:49.876Z,-1.00
2019-01-31T14:45:17.479Z,-1.01
2019-01-31T14:47:45.785Z,-1.04
2019-01-31T14:50:17.441Z,-1.06
2019-01-31T14:52:44.985Z,-1.06
2019-01-31T14:55:13.716Z,-1.06
2019-01-31T14:57:41.138Z,-1.07
2019-01-31T15:00:12.813Z,-1.06
2019-01-31T15:02:41.639Z,-1.04
2019-01-31T15:05:11.945Z,-1.05
2019-01-31T15:07:40.498Z,-1.04
2019-01-31T15:10:10.926Z,-1.06
2019-01-31T15:12:38.352Z,-1.07
2019-01-31T15:15:06.615Z,-1.06
2019-01-31T15:17:34.841Z,-1.06
2019-01-31T15:20:03.147Z,-1.06
2019-01-31T15:22:32.296Z,-1.08
2019-01-31T15:24:59.608Z,-1.09
2019-01-31T15:27:27.001Z,-1.10
2019-01-31T15:29:54.525Z,-1.10
2019-01-31T15:32:23.598Z,-1.09
2019-01-31T15:34:51.004Z,-1.08
2019-01-31T15:37:19.492Z,-1.06
2019-01-31T15:39:48.119Z,-1.05
2019-01-31T15:42:15.369Z,-1.06
2019-01-31T15:47:13.735Z,-1.00
2019-01-31T15:49:40.840Z,-1.03
2019-01-31T15:52:07.973Z,-1.05
2019-01-31T15:54:42.513Z,-1.04
2019-01-31T15:57:55.404Z,-1.05
2019-01-31T16:00:44.270Z,-1.05
2019-01-31T16:03:19.539Z,-1.05
2019-01-31T16:05:47.046Z,-1.07
2019-01-31T16:08:14.682Z,-1.05
2019-01-31T16:10:42.046Z,-1.02
2019-01-31T16:13:09.239Z,-1.03
2019-01-31T16:15:36.570Z,-1.01
2019-01-31T16:18:05.025Z,-1.00
2019-01-31T16:20:32.171Z,-1.01
2019-01-31T16:22:59.288Z,-0.99
2019-01-31T16:25:26.396Z,-1.00
2019-01-31T16:27:53.503Z,-1.00
2019-01-31T16:30:21.124Z,-0.98
2019-01-31T16:32:48.339Z,-0.96
2019-01-31T16:35:15.480Z,-0.93
2019-01-31T16:37:42.783Z,-0.94
2019-01-31T16:40:11.715Z,-0.94
2019-01-31T16:42:38.951Z,-0.94
2019-01-31T16:45:08.176Z,-0.94
2019-01-31T16:47:35.302Z,-0.93
2019-01-31T16:50:03.497Z,-0.91
2019-01-31T16:52:30.602Z,-0.90
2019-01-31T16:54:57.716Z,-0.89
2019-01-31T16:57:24.858Z,-0.87
2019-01-31T16:59:51.976Z,-0.86
2019-01-31T17:02:19.130Z,-0.87
2019-01-31T17:04:46.278Z,-0.87
2019-01-31T17:07:13.699Z,-0.87
2019-01-31T17:09:40.797Z,-0.86
2019-01-31T17:12:07.911Z,-0.85
2019-01-31T17:14:35.031Z,-0.86
2019-01-31T17:17:02.534Z,-0.86
2019-01-31T17:19:29.645Z,-0.83
2019-01-31T17:21:56.835Z,-0.83
2019-01-31T17:24:23.933Z,-0.82
2019-01-31T17:26:51.351Z,-0.80
2019-01-31T17:29:18.766Z,-0.79
2019-01-31T17:31:47.679Z,-0.78
2019-01-31T17:34:15.827Z,-0.78
2019-01-31T17:36:45.962Z,-0.77
2019-01-31T17:39:13.073Z,-0.76
2019-01-31T17:41:41.506Z,-0.75
2019-01-31T17:44:09.036Z,-0.74
2019-01-31T17:46:36.399Z,-0.72
2019-01-31T17:49:05.187Z,-0.72
2019-01-31T17:51:32.893Z,-0.72
2019-01-31T17:54:01.648Z,-0.72
2019-01-31T17:56:29.321Z,-0.72
2019-01-31T17:58:58.491Z,-0.73
2019-01-31T18:01:25.602Z,-0.75
2019-01-31T18:03:52.768Z,-0.79
2019-01-31T18:06:21.801Z,-0.83
2019-01-31T18:08:51.657Z,-0.88
2019-01-31T18:11:18.836Z,-0.89
2019-01-31T18:13:46.084Z,-0.92
2019-01-31T18:16:34.583Z,-0.95
2019-01-31T18:19:36.519Z,-0.99
2019-01-31T18:22:04.141Z,-1.01
2019-01-31T18:24:31.344Z,-1.03
2019-01-31T18:26:58.800Z,-1.03
2019-01-31T18:29:27.311Z,-1.04
2019-01-31T18:31:54.732Z,-1.08
2019-01-31T18:34:22.201Z,-1.12
2019-01-31T18:36:49.681Z,-1.17
2019-01-31T18:39:16.820Z,-1.24
2019-01-31T18:41:45.813Z,-1.31
2019-01-31T18:44:13.138Z,-1.36
2019-01-31T18:46:40.517Z,-1.37
2019-01-31T18:49:07.844Z,-1.40
2019-01-31T18:51:35.163Z,-1.47
2019-01-31T18:54:03.711Z,-1.52
2019-01-31T18:56:31.330Z,-1.56
2019-01-31T18:58:58.614Z,-1.57
2019-01-31T19:01:28.998Z,-1.59
2019-01-31T19:03:56.639Z,-1.60
2019-01-31T19:06:27.020Z,-1.62
2019-01-31T19:08:54.781Z,-1.61
2019-01-31T19:11:22.177Z,-1.63
2019-01-31T19:13:51.298Z,-1.62
2019-01-31T19:16:18.717Z,-1.60
2019-01-31T19:18:47.199Z,-1.59
2019-01-31T19:21:14.294Z,-1.58
2019-01-31T19:23:41.425Z,-1.60
2019-01-31T19:26:08.834Z,-1.63
2019-01-31T19:28:36.215Z,-1.64
2019-01-31T19:31:04.674Z,-1.65
2019-01-31T19:33:31.927Z,-1.64
2019-01-31T19:35:59.509Z,-1.63
2019-01-31T19:38:26.755Z,-1.62
2019-01-31T19:40:54.292Z,-1.60
2019-01-31T19:43:21.684Z,-1.60
2019-01-31T19:45:49.956Z,-1.59
2019-01-31T19:48:17.519Z,-1.58
2019-01-31T19:50:44.729Z,-1.59
2019-01-31T19:53:12.269Z,-1.57
2019-01-31T19:55:39.587Z,-1.54
2019-01-31T19:58:07.050Z,-1.53
2019-01-31T20:00:34.621Z,-1.53
2019-01-31T20:03:04.139Z,-1.53
2019-01-31T20:05:31.443Z,-1.53
2019-01-31T20:08:00.664Z,-1.50
2019-01-31T20:10:29.855Z,-1.45
2019-01-31T20:12:57.400Z,-1.44
2019-01-31T20:15:25.252Z,-1.41
2019-01-31T20:17:52.727Z,-1.40
2019-01-31T20:20:23.237Z,-1.39
2019-01-31T20:22:52.712Z,-1.39
2019-01-31T20:25:21.338Z,-1.40
2019-01-31T20:27:48.703Z,-1.41
2019-01-31T20:30:18.393Z,-1.42
2019-01-31T20:32:45.859Z,-1.45
2019-01-31T20:35:15.301Z,-1.44
2019-01-31T20:37:42.852Z,-1.44
2019-01-31T20:40:12.428Z,-1.44
2019-01-31T20:42:39.845Z,-1.47
2019-01-31T20:45:09.425Z,-1.46
2019-01-31T20:47:38.008Z,-1.42
2019-01-31T20:50:08.409Z,-1.39
2019-01-31T20:52:35.616Z,-1.37
2019-01-31T20:55:03.821Z,-1.32
2019-01-31T20:57:31.233Z,-1.31
2019-01-31T20:59:58.423Z,-1.27
2019-01-31T21:02:25.543Z,-1.25
2019-01-31T21:04:54.010Z,-1.23
2019-01-31T21:07:21.435Z,-1.22
2019-01-31T21:09:48.655Z,-1.21
2019-01-31T21:12:16.074Z,-1.19
2019-01-31T21:14:45.211Z,-1.15
2019-01-31T21:17:12.526Z,-1.13
2019-01-31T21:19:39.806Z,-1.10
2019-01-31T21:22:12.435Z,-1.10
2019-01-31T21:24:40.110Z,-1.12
2019-01-31T21:27:11.132Z,-1.09
2019-01-31T21:29:41.321Z,-1.08
2019-01-31T21:32:13.412Z,-1.05
2019-01-31T21:34:40.626Z,-1.02
2019-01-31T21:37:07.818Z,-0.99
2019-01-31T21:39:34.937Z,-0.97
2019-01-31T21:42:02.128Z,-0.93
2019-01-31T21:44:32.251Z,-0.92
2019-01-31T21:47:03.183Z,-0.92
2019-01-31T21:49:31.667Z,-0.90
2019-01-31T21:51:58.919Z,-0.90
2019-01-31T21:54:26.297Z,-0.91
2019-01-31T21:56:55.357Z,-0.89
2019-01-31T21:59:23.766Z,-0.88
2019-01-31T22:01:53.348Z,-0.88
2019-01-31T22:04:24.612Z,-0.87
2019-01-31T22:06:51.850Z,-0.88
2019-01-31T22:09:19.115Z,-0.85
2019-01-31T22:11:49.477Z,-0.85
2019-01-31T22:14:18.467Z,-0.86
2019-01-31T22:16:46.669Z,-0.85
2019-01-31T22:19:13.929Z,-0.83
2019-01-31T22:21:45.936Z,-0.83
2019-01-31T22:24:13.131Z,-0.82
2019-01-31T22:26:43.226Z,-0.81
2019-01-31T22:29:13.342Z,-0.82
2019-01-31T22:31:40.790Z,-0.82
2019-01-31T22:34:10.039Z,-0.83
2019-01-31T22:36:37.248Z,-0.78
2019-01-31T22:39:09.547Z,-0.77
2019-01-31T22:41:36.649Z,-0.78
2019-01-31T22:44:04.007Z,-0.81
2019-01-31T22:46:31.111Z,-0.82
2019-01-31T22:49:12.973Z,-0.82
2019-01-31T22:51:45.804Z,-0.83
2019-01-31T22:54:15.698Z,-0.83
2019-01-31T22:56:43.909Z,-0.85
2019-01-31T22:59:11.002Z,-0.85
2019-01-31T23:01:50.089Z,-0.85
2019-01-31T23:04:27.934Z,-0.85
2019-01-31T23:07:00.474Z,-0.86
2019-01-31T23:09:30.643Z,-0.86
2019-01-31T23:12:13.612Z,-0.85
2019-01-31T23:14:40.841Z,-0.84
2019-01-31T23:17:10.376Z,-0.83
2019-01-31T23:19:37.641Z,-0.83
2019-01-31T23:22:08.136Z,-0.82
2019-01-31T23:24:40.997Z,-0.81
2019-01-31T23:27:08.180Z,-0.80
2019-01-31T23:29:35.479Z,-0.79
2019-01-31T23:32:04.541Z,-0.78
2019-01-31T23:34:36.303Z,-0.78
2019-01-31T23:37:10.568Z,-0.77
2019-01-31T23:39:42.261Z,-0.77
2019-01-31T23:42:10.419Z,-0.77
2019-01-31T23:44:42.059Z,-0.79
2019-01-31T23:47:09.157Z,-0.81
2019-01-31T23:49:36.304Z,-0.79
2019-01-31T23:52:03.575Z,-0.82
2019-01-31T23:54:30.786Z,-0.85
2019-01-31T23:56:57.895Z,-0.89
2019-01-31T23:59:25.020Z,-0.91
